createdAt,value
2023-01-03T00:00:11.868Z,9.26
2023-01-03T00:02:14.119Z,9.24
2023-01-03T00:04:19.550Z,9.21
2023-01-03T00:06:34.611Z,9.12
2023-01-03T00:08:37.354Z,9.18
2023-01-03T00:10:39.996Z,9.18
2023-01-03T00:12:42.340Z,9.16
2023-01-03T00:14:44.735Z,9.16
2023-01-03T00:16:50.305Z,9.12
2023-01-03T00:18:52.775Z,9.01
2023-01-03T00:20:54.773Z,9.00
2023-01-03T00:22:57.288Z,9.02
2023-01-03T00:24:59.670Z,9.00
2023-01-03T00:27:02.227Z,8.98
2023-01-03T00:29:13.428Z,9.00
2023-01-03T00:31:15.601Z,8.97
2023-01-03T00:33:17.748Z,8.88
2023-01-03T00:35:19.824Z,8.83
2023-01-03T00:37:23.094Z,8.84
2023-01-03T00:39:25.814Z,8.88
2023-01-03T00:41:28.358Z,8.81
2023-01-03T00:43:30.595Z,8.83
2023-01-03T00:45:35.668Z,8.84
2023-01-03T00:47:38.036Z,8.86
2023-01-03T00:49:40.239Z,8.83
2023-01-03T00:51:42.904Z,8.71
2023-01-03T00:53:48.639Z,8.66
2023-01-03T00:55:51.001Z,8.63
2023-01-03T00:57:53.159Z,8.69
2023-01-03T00:59:55.499Z,8.70
2023-01-03T01:01:58.087Z,8.70
2023-01-03T01:04:07.759Z,8.69
2023-01-03T01:06:18.804Z,8.75
2023-01-03T01:08:20.806Z,8.78
2023-01-03T01:10:23.388Z,8.81
2023-01-03T01:12:25.709Z,8.78
2023-01-03T01:14:30.024Z,8.75
2023-01-03T01:16:33.012Z,8.78
2023-01-03T01:18:39.308Z,8.80
2023-01-03T01:20:41.590Z,8.82
2023-01-03T01:22:43.705Z,8.78
2023-01-03T01:24:45.981Z,8.74
2023-01-03T01:26:48.532Z,8.77
2023-01-03T01:28:52.032Z,8.69
2023-01-03T01:30:54.728Z,8.57
2023-01-03T01:32:57.406Z,8.56
2023-01-03T01:34:59.558Z,8.57
2023-01-03T01:37:01.703Z,8.52
2023-01-03T01:39:07.563Z,8.47
2023-01-03T01:41:14.118Z,8.43
2023-01-03T01:43:42.373Z,8.45
2023-01-03T01:45:47.861Z,8.43
2023-01-03T01:48:13.414Z,8.43
2023-01-03T01:50:49.326Z,8.42
2023-01-03T01:52:54.834Z,8.46
2023-01-03T01:54:59.116Z,8.43
2023-01-03T01:57:02.475Z,8.42
2023-01-03T01:59:09.235Z,8.39
2023-01-03T02:01:14.007Z,8.41
2023-01-03T02:03:16.315Z,8.33
2023-01-03T02:09:12.491Z,8.37
2023-01-03T02:11:42.790Z,8.36
2023-01-03T02:14:06.144Z,8.30
2023-01-03T02:16:48.422Z,8.27
2023-01-03T02:19:38.327Z,8.21
2023-01-03T02:21:58.562Z,8.15
2023-01-03T02:24:31.774Z,8.09
2023-01-03T02:26:39.542Z,8.08
2023-01-03T02:29:14.797Z,8.04
2023-01-03T02:31:33.786Z,8.02
2023-01-03T02:33:46.604Z,8.08
2023-01-03T02:36:19.638Z,8.14
2023-01-03T02:38:40.948Z,8.19
2023-01-03T02:40:56.429Z,8.17
2023-01-03T02:43:19.451Z,8.23
2023-01-03T02:45:31.159Z,8.15
2023-01-03T02:47:46.140Z,8.21
2023-01-03T02:49:51.720Z,8.21
2023-01-03T02:51:59.841Z,8.25
2023-01-03T02:54:05.341Z,8.16
2023-01-03T02:56:11.921Z,8.22
2023-01-03T02:58:22.797Z,8.15
2023-01-03T03:00:29.502Z,8.11
2023-01-03T03:02:35.160Z,8.16
2023-01-03T03:04:40.134Z,8.16
2023-01-03T03:06:50.294Z,8.12
2023-01-03T03:08:52.553Z,8.11
2023-01-03T03:11:14.463Z,8.10
2023-01-03T03:13:41.401Z,8.00
2023-01-03T03:16:01.785Z,8.06
2023-01-03T03:18:19.228Z,7.99
2023-01-03T03:20:40.626Z,8.01
2023-01-03T03:23:03.646Z,8.01
2023-01-03T03:25:31.886Z,7.90
2023-01-03T03:28:09.613Z,8.00
2023-01-03T03:30:15.971Z,8.02
2023-01-03T03:32:18.639Z,8.02
2023-01-03T03:34:32.792Z,8.04
2023-01-03T03:36:51.565Z,8.04
2023-01-03T03:38:54.359Z,8.03
2023-01-03T03:41:23.996Z,8.01
2023-01-03T03:44:03.231Z,7.96
2023-01-03T03:46:16.085Z,8.05
2023-01-03T03:49:25.384Z,7.92
2023-01-03T03:51:34.803Z,7.99
2023-01-03T03:53:39.685Z,8.07
2023-01-03T03:55:46.127Z,8.10
2023-01-03T03:57:55.288Z,8.01
2023-01-03T04:00:03.535Z,8.07
2023-01-03T04:02:16.927Z,8.13
2023-01-03T04:04:25.160Z,8.16
2023-01-03T04:06:36.302Z,8.13
2023-01-03T04:08:38.821Z,8.19
2023-01-03T04:10:44.145Z,8.17
2023-01-03T04:12:50.810Z,8.14
2023-01-03T04:14:53.273Z,8.16
2023-01-03T04:16:55.639Z,8.13
2023-01-03T04:18:57.785Z,8.15
2023-01-03T04:21:00.292Z,8.15
2023-01-03T04:23:02.371Z,8.12
2023-01-03T04:25:04.814Z,8.15
2023-01-03T04:27:07.163Z,8.11
2023-01-03T04:29:09.316Z,8.10
2023-01-03T04:31:13.052Z,8.06
2023-01-03T04:33:15.820Z,8.03
2023-01-03T04:35:18.175Z,8.02
2023-01-03T04:37:20.493Z,8.00
2023-01-03T04:39:22.767Z,7.97
2023-01-03T04:41:24.971Z,8.02
2023-01-03T04:43:46.424Z,7.97
2023-01-03T04:45:49.868Z,7.99
2023-01-03T04:47:54.221Z,7.99
2023-01-03T04:49:56.567Z,8.02
2023-01-03T04:51:59.028Z,7.93
2023-01-03T04:54:02.148Z,7.92
2023-01-03T04:56:04.453Z,7.96
2023-01-03T04:58:06.584Z,7.97
2023-01-03T05:00:10.343Z,7.93
2023-01-03T05:02:12.603Z,7.99
2023-01-03T05:04:14.804Z,7.97
2023-01-03T05:06:18.082Z,8.00
2023-01-03T05:08:20.126Z,8.04
2023-01-03T05:10:22.452Z,8.11
2023-01-03T05:12:24.763Z,8.23
2023-01-03T05:14:27.029Z,8.22
2023-01-03T05:16:29.719Z,8.24
2023-01-03T05:18:33.038Z,8.18
2023-01-03T05:20:57.777Z,8.08
2023-01-03T05:23:18.619Z,8.13
2023-01-03T05:25:40.113Z,8.12
2023-01-03T05:27:42.146Z,8.07
2023-01-03T05:29:47.576Z,8.10
2023-01-03T05:31:50.002Z,8.04
2023-01-03T05:33:54.022Z,8.11
2023-01-03T05:35:56.239Z,8.10
2023-01-03T05:37:58.600Z,8.07
2023-01-03T05:40:00.866Z,8.04
2023-01-03T05:42:03.215Z,8.04
2023-01-03T05:44:06.443Z,8.01
2023-01-03T05:46:08.594Z,7.99
2023-01-03T05:48:15.001Z,7.95
2023-01-03T05:50:17.272Z,7.91
2023-01-03T05:52:20.114Z,7.87
2023-01-03T05:54:22.073Z,7.76
2023-01-03T05:56:24.503Z,7.76
2023-01-03T05:58:26.625Z,7.76
2023-01-03T06:00:29.693Z,7.71
2023-01-03T06:02:32.050Z,7.77
2023-01-03T06:04:34.396Z,7.79
2023-01-03T06:06:36.578Z,7.78
2023-01-03T06:08:39.442Z,7.75
2023-01-03T06:10:41.469Z,7.66
2023-01-03T06:12:44.029Z,7.67
2023-01-03T06:14:46.107Z,7.70
2023-01-03T06:17:06.753Z,7.77
2023-01-03T06:19:11.542Z,7.68
2023-01-03T06:21:13.577Z,7.77
2023-01-03T06:23:16.137Z,7.75
2023-01-03T06:25:20.918Z,7.75
2023-01-03T06:27:23.566Z,7.72
2023-01-03T06:29:26.135Z,7.67
2023-01-03T06:31:28.399Z,7.67
2023-01-03T06:33:30.673Z,7.68
2023-01-03T06:35:32.606Z,7.68
2023-01-03T06:37:34.930Z,7.71
2023-01-03T06:39:37.576Z,7.76
2023-01-03T06:41:40.445Z,7.81
2023-01-03T06:43:42.890Z,7.83
2023-01-03T06:46:03.636Z,7.89
2023-01-03T06:48:25.544Z,7.96
2023-01-03T06:50:46.538Z,8.00
2023-01-03T06:53:07.112Z,7.96
2023-01-03T06:55:09.765Z,8.02
2023-01-03T06:57:11.975Z,8.08
2023-01-03T06:59:30.239Z,8.13
2023-01-03T07:01:32.860Z,8.19
2023-01-03T07:03:35.368Z,8.22
2023-01-03T07:05:37.564Z,8.21
2023-01-03T07:07:40.118Z,8.23
2023-01-03T07:09:42.283Z,8.24
2023-01-03T07:11:44.765Z,8.32
2023-01-03T07:13:59.099Z,8.39
2023-01-03T07:16:01.462Z,8.43
2023-01-03T07:18:03.922Z,8.50
2023-01-03T07:20:06.693Z,8.57
2023-01-03T07:22:11.821Z,8.57
2023-01-03T07:24:18.853Z,8.53
2023-01-03T07:26:21.539Z,8.60
2023-01-03T07:28:24.025Z,8.59
2023-01-03T07:30:26.328Z,8.67
2023-01-03T07:32:28.579Z,8.74
2023-01-03T07:34:37.197Z,8.85
2023-01-03T07:36:39.526Z,8.97
2023-01-03T07:38:43.380Z,9.02
2023-01-03T07:40:48.688Z,9.04
2023-01-03T07:43:10.074Z,9.10
2023-01-03T07:45:15.175Z,9.09
2023-01-03T07:47:17.315Z,9.03
2023-01-03T07:49:19.424Z,9.16
2023-01-03T07:51:22.388Z,9.21
2023-01-03T07:53:24.447Z,9.26
2023-01-03T07:55:29.532Z,9.35
2023-01-03T07:57:31.528Z,9.39
2023-01-03T07:59:33.680Z,9.47
2023-01-03T08:01:36.040Z,9.50
2023-01-03T08:03:39.533Z,9.48
2023-01-03T08:05:41.623Z,9.57
2023-01-03T08:07:48.006Z,9.63
2023-01-03T08:10:08.398Z,9.68
2023-01-03T08:12:46.742Z,9.66
2023-01-03T08:14:48.692Z,9.74
2023-01-03T08:16:50.987Z,9.77
2023-01-03T08:18:52.939Z,9.76
2023-01-03T08:20:57.216Z,9.74
2023-01-03T08:23:00.623Z,9.74
2023-01-03T08:25:02.619Z,9.71
2023-01-03T08:27:05.359Z,9.73
2023-01-03T08:29:08.165Z,9.79
2023-01-03T08:31:18.823Z,9.81
2023-01-03T08:33:21.289Z,9.86
2023-01-03T08:35:27.458Z,9.87
2023-01-03T08:37:46.757Z,9.88
2023-01-03T08:39:59.440Z,9.86
2023-01-03T08:42:05.258Z,9.90
2023-01-03T08:44:14.815Z,9.87
2023-01-03T08:46:18.234Z,9.86
2023-01-03T08:48:22.431Z,9.95
2023-01-03T08:50:26.584Z,9.98
2023-01-03T08:52:34.517Z,9.97
2023-01-03T08:54:38.215Z,9.99
2023-01-03T08:56:40.485Z,9.99
2023-01-03T08:58:42.744Z,9.98
2023-01-03T09:00:48.046Z,9.98
2023-01-03T09:02:50.638Z,10.03
2023-01-03T09:04:52.920Z,10.02
2023-01-03T09:06:55.114Z,10.09
2023-01-03T09:08:57.355Z,10.12
2023-01-03T09:10:59.353Z,10.13
2023-01-03T09:13:04.951Z,10.19
2023-01-03T09:15:07.439Z,10.25
2023-01-03T09:17:10.003Z,10.23
2023-01-03T09:19:12.042Z,10.30
2023-01-03T09:21:14.129Z,10.30
2023-01-03T09:23:17.869Z,10.38
2023-01-03T09:25:20.340Z,10.42
2023-01-03T09:27:23.322Z,10.44
2023-01-03T09:29:25.485Z,10.46
2023-01-03T09:31:29.441Z,10.43
2023-01-03T09:33:31.907Z,10.55
2023-01-03T09:35:34.433Z,10.55
2023-01-03T09:37:37.288Z,10.57
2023-01-03T09:39:43.774Z,10.60
2023-01-03T09:42:07.324Z,10.60
2023-01-03T09:44:10.377Z,10.68
2023-01-03T09:46:24.644Z,10.63
2023-01-03T09:48:34.841Z,10.70
2023-01-03T09:51:14.067Z,10.79
2023-01-03T09:53:21.160Z,10.86
2023-01-03T09:55:53.679Z,10.87
2023-01-03T09:58:14.304Z,10.92
2023-01-03T10:01:01.212Z,10.97
2023-01-03T10:03:50.397Z,11.01
2023-01-03T10:06:44.274Z,11.09
2023-01-03T10:09:02.075Z,11.13
2023-01-03T10:11:12.463Z,11.09
2023-01-03T10:13:26.517Z,11.04
2023-01-03T10:16:32.882Z,11.08
2023-01-03T10:18:48.235Z,11.21
2023-01-03T10:21:28.325Z,11.22
2023-01-03T10:23:31.320Z,11.26
2023-01-03T10:25:33.509Z,11.34
2023-01-03T10:28:10.704Z,11.40
2023-01-03T10:30:19.977Z,11.48
2023-01-03T10:33:15.427Z,11.46
2023-01-03T10:35:19.783Z,11.57
2023-01-03T10:37:24.362Z,11.59
2023-01-03T10:39:32.804Z,11.59
2023-01-03T10:41:46.305Z,11.61
2023-01-03T10:44:02.737Z,11.66
2023-01-03T10:46:25.638Z,11.80
2023-01-03T10:49:08.389Z,11.86
2023-01-03T10:51:32.711Z,11.98
2023-01-03T10:53:41.693Z,12.05
2023-01-03T10:55:54.960Z,12.08
2023-01-03T10:57:59.399Z,12.12
2023-01-03T11:00:02.084Z,12.15
2023-01-03T11:02:13.031Z,12.16
2023-01-03T11:04:18.455Z,12.19
2023-01-03T11:06:20.827Z,12.21
2023-01-03T11:09:03.210Z,12.20
2023-01-03T11:11:05.734Z,12.26
2023-01-03T11:13:41.134Z,12.24
2023-01-03T11:15:44.002Z,12.33
2023-01-03T11:17:54.762Z,12.31
2023-01-03T11:19:57.539Z,12.36
2023-01-03T11:22:38.639Z,12.37
2023-01-03T11:24:52.768Z,12.40
2023-01-03T11:27:17.900Z,12.45
2023-01-03T11:29:45.029Z,12.45
2023-01-03T11:32:05.600Z,12.45
2023-01-03T11:34:37.915Z,12.49
2023-01-03T11:37:03.532Z,12.50
2023-01-03T11:39:52.532Z,12.50
2023-01-03T11:42:03.269Z,12.54
2023-01-03T11:44:34.437Z,12.57
2023-01-03T11:46:48.574Z,12.59
2023-01-03T11:49:24.638Z,12.62
2023-01-03T11:51:48.450Z,12.66
2023-01-03T11:54:27.320Z,12.66
2023-01-03T11:56:47.319Z,12.69
2023-01-03T11:59:19.644Z,12.71
2023-01-03T12:02:07.552Z,12.70
2023-01-03T12:04:18.932Z,12.75
2023-01-03T12:06:45.093Z,12.76
2023-01-03T12:09:25.079Z,12.74
2023-01-03T12:11:57.305Z,12.75
2023-01-03T12:14:44.155Z,12.78
2023-01-03T12:16:51.836Z,12.82
2023-01-03T12:19:33.113Z,12.79
2023-01-03T12:21:42.267Z,12.80
2023-01-03T12:23:52.769Z,12.78
2023-01-03T12:26:02.707Z,12.77
2023-01-03T12:28:19.147Z,12.80
2023-01-03T12:30:39.850Z,12.84
2023-01-03T12:32:55.449Z,12.82
2023-01-03T12:35:19.566Z,12.82
2023-01-03T12:37:30.202Z,12.85
2023-01-03T12:39:56.895Z,12.86
2023-01-03T12:42:25.081Z,12.86
2023-01-03T12:44:41.190Z,12.85
2023-01-03T12:46:55.453Z,12.86
2023-01-03T12:49:01.561Z,12.89
2023-01-03T12:51:06.403Z,12.88
2023-01-03T12:53:36.066Z,12.85
2023-01-03T12:56:05.343Z,12.80
2023-01-03T12:58:07.498Z,12.75
2023-01-03T13:00:25.951Z,12.70
2023-01-03T13:03:01.800Z,12.67
2023-01-03T13:05:16.495Z,12.69
2023-01-03T13:07:26.410Z,12.73
2023-01-03T13:09:36.126Z,12.78
2023-01-03T13:11:49.065Z,12.76
2023-01-03T13:14:03.317Z,12.76
2023-01-03T13:16:50.976Z,12.71
2023-01-03T13:18:54.235Z,12.72
2023-01-03T13:20:57.215Z,12.69
2023-01-03T13:23:14.380Z,12.64
2023-01-03T13:25:42.122Z,12.68
2023-01-03T13:27:56.599Z,12.63
2023-01-03T13:30:03.668Z,12.63
2023-01-03T13:32:25.394Z,12.64
2023-01-03T13:34:34.493Z,12.62
2023-01-03T13:37:05.827Z,12.60
2023-01-03T13:39:44.915Z,12.55
2023-01-03T13:41:54.453Z,12.53
2023-01-03T13:44:08.935Z,12.52
2023-01-03T13:46:28.071Z,12.51
2023-01-03T13:48:38.770Z,12.58
2023-01-03T13:50:43.176Z,12.53
2023-01-03T13:53:10.562Z,12.48
2023-01-03T13:55:57.673Z,12.46
2023-01-03T13:58:00.401Z,12.46
2023-01-03T14:00:12.520Z,12.44
2023-01-03T14:02:40.475Z,12.38
2023-01-03T14:05:21.191Z,12.44
2023-01-03T14:07:51.321Z,12.39
2023-01-03T14:10:01.110Z,12.38
2023-01-03T14:12:22.042Z,12.37
2023-01-03T14:14:31.235Z,12.32
2023-01-03T14:16:56.253Z,12.26
2023-01-03T14:19:11.500Z,12.26
2023-01-03T14:21:25.876Z,12.23
2023-01-03T14:23:59.230Z,12.27
2023-01-03T14:25:52.159Z,12.29
2023-01-03T14:27:56.387Z,12.27
2023-01-03T14:29:58.830Z,12.25
2023-01-03T14:32:01.249Z,12.25
2023-01-03T14:34:05.728Z,12.25
2023-01-03T14:36:19.287Z,12.23
2023-01-03T14:38:32.299Z,12.15
2023-01-03T14:40:34.924Z,12.22
2023-01-03T14:42:45.506Z,12.16
2023-01-03T14:44:55.943Z,12.13
2023-01-03T14:47:01.310Z,12.14
2023-01-03T14:49:07.278Z,12.15
2023-01-03T14:51:10.637Z,12.12
2023-01-03T14:53:14.124Z,12.14
2023-01-03T14:55:19.213Z,12.12
2023-01-03T14:57:28.327Z,12.11
2023-01-03T14:59:31.965Z,12.10
2023-01-03T15:01:34.545Z,12.09
2023-01-03T15:03:40.963Z,12.06
2023-01-03T15:05:43.700Z,12.06
2023-01-03T15:07:45.972Z,12.05
2023-01-03T15:09:49.429Z,12.04
2023-01-03T15:11:57.460Z,12.03
2023-01-03T15:14:06.768Z,11.98
2023-01-03T15:16:38.154Z,11.91
2023-01-03T15:18:41.160Z,11.94
2023-01-03T15:20:45.237Z,11.93
2023-01-03T15:22:47.710Z,11.92
2023-01-03T15:25:15.966Z,11.86
2023-01-03T15:27:39.460Z,11.84
2023-01-03T15:29:44.835Z,11.86
2023-01-03T15:31:54.266Z,11.82
2023-01-03T15:34:34.283Z,11.78
2023-01-03T15:36:37.550Z,11.84
2023-01-03T15:38:43.845Z,11.83
2023-01-03T15:40:49.641Z,11.81
2023-01-03T15:43:11.428Z,11.82
2023-01-03T15:45:41.311Z,11.75
2023-01-03T15:47:44.476Z,11.77
2023-01-03T15:49:49.749Z,11.71
2023-01-03T15:51:51.660Z,11.74
2023-01-03T15:53:54.288Z,11.72
2023-01-03T15:56:00.941Z,11.68
2023-01-03T15:58:03.100Z,11.73
2023-01-03T16:00:08.091Z,11.73
2023-01-03T16:02:18.457Z,11.69
2023-01-03T16:04:21.932Z,11.73
2023-01-03T16:06:24.360Z,11.71
2023-01-03T16:08:33.592Z,11.68
2023-01-03T16:10:36.632Z,11.69
2023-01-03T16:12:43.728Z,11.70
2023-01-03T16:14:49.410Z,11.64
2023-01-03T16:16:57.169Z,11.65
2023-01-03T16:18:59.786Z,11.61
2023-01-03T16:21:03.142Z,11.63
2023-01-03T16:23:05.655Z,11.62
2023-01-03T16:25:15.718Z,11.60
2023-01-03T16:27:25.705Z,11.62
2023-01-03T16:29:27.874Z,11.61
2023-01-03T16:31:35.523Z,11.58
2023-01-03T16:33:38.511Z,11.62
2023-01-03T16:35:40.605Z,11.61
2023-01-03T16:37:43.146Z,11.61
2023-01-03T16:40:20.359Z,11.50
2023-01-03T16:42:27.970Z,11.57
2023-01-03T16:44:30.157Z,11.56
2023-01-03T16:46:35.214Z,11.57
2023-01-03T16:48:40.956Z,11.55
2023-01-03T16:50:43.797Z,11.57
2023-01-03T16:52:48.707Z,11.54
2023-01-03T16:54:51.450Z,11.55
2023-01-03T16:56:53.558Z,11.57
2023-01-03T16:58:55.739Z,11.57
2023-01-03T17:00:57.718Z,11.56
2023-01-03T17:03:01.188Z,11.58
2023-01-03T17:05:41.676Z,11.51
2023-01-03T17:07:46.614Z,11.60
2023-01-03T17:09:50.485Z,11.54
2023-01-03T17:11:52.639Z,11.60
2023-01-03T17:14:02.056Z,11.60
2023-01-03T17:16:09.480Z,11.63
2023-01-03T17:18:19.968Z,11.58
2023-01-03T17:20:23.351Z,11.59
2023-01-03T17:22:25.630Z,11.54
2023-01-03T17:24:28.903Z,11.50
2023-01-03T17:26:33.246Z,11.48
2023-01-03T17:28:35.652Z,11.49
2023-01-03T17:30:38.331Z,11.51
2023-01-03T17:32:42.934Z,11.49
2023-01-03T17:34:45.320Z,11.54
2023-01-03T17:36:47.273Z,11.53
2023-01-03T17:38:50.290Z,11.50
2023-01-03T17:40:53.064Z,11.41
2023-01-03T17:42:57.665Z,11.45
2023-01-03T17:45:19.277Z,11.48
2023-01-03T17:47:41.784Z,11.41
2023-01-03T17:49:44.001Z,11.37
2023-01-03T17:51:46.465Z,11.39
2023-01-03T17:53:49.967Z,11.37
2023-01-03T17:55:52.785Z,11.39
2023-01-03T17:57:56.596Z,11.37
2023-01-03T17:59:58.992Z,11.29
2023-01-03T18:02:01.298Z,11.28
2023-01-03T18:04:06.219Z,11.29
2023-01-03T18:06:20.228Z,11.27
2023-01-03T18:08:24.036Z,11.34
2023-01-03T18:10:43.769Z,11.26
2023-01-03T18:12:48.425Z,11.30
2023-01-03T18:14:50.894Z,11.30
2023-01-03T18:16:55.221Z,11.28
2023-01-03T18:18:57.788Z,11.29
2023-01-03T18:21:00.201Z,11.34
2023-01-03T18:23:02.488Z,11.34
2023-01-03T18:25:05.294Z,11.36
2023-01-03T18:27:09.566Z,11.36
2023-01-03T18:29:15.513Z,11.33
2023-01-03T18:31:19.670Z,11.30
2023-01-03T18:33:22.246Z,11.38
2023-01-03T18:35:32.392Z,11.38
2023-01-03T18:37:37.721Z,11.36
2023-01-03T18:39:39.981Z,11.26
2023-01-03T18:41:42.597Z,11.23
2023-01-03T18:43:44.616Z,11.22
2023-01-03T18:45:47.771Z,11.24
2023-01-03T18:47:50.826Z,11.24
2023-01-03T18:49:53.222Z,11.18
2023-01-03T18:51:55.969Z,11.15
2023-01-03T18:53:59.892Z,11.15
2023-01-03T18:56:03.160Z,11.09
2023-01-03T18:58:24.120Z,11.06
2023-01-03T19:00:27.428Z,11.16
2023-01-03T19:02:30.672Z,11.21
2023-01-03T19:04:33.346Z,11.21
2023-01-03T19:06:43.261Z,11.10
2023-01-03T19:08:45.844Z,11.17
2023-01-03T19:10:48.245Z,11.18
2023-01-03T19:12:53.524Z,11.19
2023-01-03T19:14:58.451Z,11.18
2023-01-03T19:17:00.580Z,11.25
2023-01-03T19:19:03.362Z,11.22
2023-01-03T19:21:05.870Z,11.19
2023-01-03T19:23:08.336Z,11.16
2023-01-03T19:25:16.366Z,11.10
2023-01-03T19:27:29.934Z,11.07
2023-01-03T19:29:39.769Z,11.12
2023-01-03T19:31:44.639Z,11.12
2023-01-03T19:33:46.765Z,11.13
2023-01-03T19:35:50.098Z,11.13
2023-01-03T19:37:53.018Z,11.13
2023-01-03T19:39:55.489Z,11.13
2023-01-03T19:42:18.651Z,11.11
2023-01-03T19:44:20.942Z,11.07
2023-01-03T19:46:23.374Z,11.13
2023-01-03T19:48:29.147Z,11.07
2023-01-03T19:50:36.117Z,11.04
2023-01-03T19:52:38.583Z,11.07
2023-01-03T19:54:40.859Z,11.07
2023-01-03T19:56:43.550Z,11.09
2023-01-03T19:58:46.109Z,11.07
2023-01-03T20:00:49.683Z,11.04
2023-01-03T20:02:56.434Z,10.97
2023-01-03T20:04:59.296Z,10.94
2023-01-03T20:07:01.626Z,10.94
2023-01-03T20:09:03.840Z,10.93
2023-01-03T20:11:21.178Z,10.83
2023-01-03T20:13:25.770Z,10.87
2023-01-03T20:15:38.034Z,10.81
2023-01-03T20:17:40.205Z,10.85
2023-01-03T20:19:42.411Z,10.90
2023-01-03T20:21:46.495Z,10.85
2023-01-03T20:23:54.707Z,10.81
2023-01-03T20:25:56.931Z,10.88
2023-01-03T20:28:01.027Z,10.88
2023-01-03T20:30:03.847Z,10.95
2023-01-03T20:32:06.630Z,10.89
2023-01-03T20:34:12.191Z,10.92
2023-01-03T20:36:23.216Z,10.92
2023-01-03T20:38:27.583Z,10.97
2023-01-03T20:40:29.923Z,10.95
2023-01-03T20:42:32.060Z,10.94
2023-01-03T20:44:34.069Z,10.95
2023-01-03T20:46:39.053Z,10.95
2023-01-03T20:48:41.442Z,10.95
2023-01-03T20:50:45.324Z,10.95
2023-01-03T20:52:48.244Z,10.94
2023-01-03T20:54:53.230Z,10.92
2023-01-03T20:56:55.272Z,10.92
2023-01-03T20:58:58.634Z,10.92
2023-01-03T21:01:05.396Z,10.92
2023-01-03T21:03:09.280Z,10.92
2023-01-03T21:05:11.833Z,10.92
2023-01-03T21:07:27.130Z,10.83
2023-01-03T21:09:29.160Z,10.87
2023-01-03T21:11:34.082Z,10.86
2023-01-03T21:13:36.949Z,10.87
2023-01-03T21:15:39.402Z,10.85
2023-01-03T21:17:45.653Z,10.85
2023-01-03T21:19:51.027Z,10.84
2023-01-03T21:21:55.248Z,10.80
2023-01-03T21:23:57.760Z,10.80
2023-01-03T21:25:59.867Z,10.80
2023-01-03T21:28:03.204Z,10.84
2023-01-03T21:30:31.164Z,10.75
2023-01-03T21:32:33.520Z,10.80
2023-01-03T21:34:35.727Z,10.79
2023-01-03T21:36:38.325Z,10.77
2023-01-03T21:38:40.727Z,10.75
2023-01-03T21:40:43.137Z,10.74
2023-01-03T21:43:05.433Z,10.73
2023-01-03T21:45:12.966Z,10.73
2023-01-03T21:47:15.197Z,10.75
2023-01-03T21:49:17.767Z,10.76
2023-01-03T21:51:33.137Z,10.71
2023-01-03T21:53:40.204Z,10.72
2023-01-03T21:55:44.616Z,10.68
2023-01-03T21:57:47.112Z,10.72
2023-01-03T21:59:49.386Z,10.73
2023-01-03T22:02:10.350Z,10.71
2023-01-03T22:04:19.707Z,10.69
2023-01-03T22:06:21.963Z,10.67
2023-01-03T22:08:24.097Z,10.67
2023-01-03T22:10:26.899Z,10.68
2023-01-03T22:12:29.171Z,10.70
2023-01-03T22:14:31.572Z,10.68
2023-01-03T22:16:33.807Z,10.71
2023-01-03T22:18:37.246Z,10.71
2023-01-03T22:20:39.414Z,10.70
2023-01-03T22:22:42.794Z,10.70
2023-01-03T22:24:44.997Z,10.69
2023-01-03T22:26:47.398Z,10.68
2023-01-03T22:28:49.616Z,10.67
2023-01-03T22:30:52.133Z,10.70
2023-01-03T22:32:57.569Z,10.71
2023-01-03T22:34:59.832Z,10.71
2023-01-03T22:37:02.026Z,10.71
2023-01-03T22:39:04.373Z,10.73
2023-01-03T22:41:15.296Z,10.66
2023-01-03T22:43:17.849Z,10.71
2023-01-03T22:45:19.991Z,10.68
2023-01-03T22:47:22.322Z,10.71
2023-01-03T22:49:24.527Z,10.72
2023-01-03T22:51:27.098Z,10.74
2023-01-03T22:53:29.376Z,10.74
2023-01-03T22:55:32.360Z,10.74
2023-01-03T22:57:34.896Z,10.75
2023-01-03T22:59:39.370Z,10.76
2023-01-03T23:01:41.437Z,10.74
2023-01-03T23:03:44.405Z,10.75
2023-01-03T23:05:46.448Z,10.75
2023-01-03T23:07:48.530Z,10.75
2023-01-03T23:09:52.683Z,10.74
2023-01-03T23:12:13.245Z,10.74
2023-01-03T23:14:18.255Z,10.68
2023-01-03T23:16:20.507Z,10.70
2023-01-03T23:18:22.841Z,10.71
2023-01-03T23:20:31.177Z,10.70
2023-01-03T23:22:33.357Z,10.67
2023-01-03T23:24:35.621Z,10.68
2023-01-03T23:26:38.139Z,10.70
2023-01-03T23:28:40.357Z,10.68
2023-01-03T23:30:42.566Z,10.67
2023-01-03T23:32:44.665Z,10.67
2023-01-03T23:34:46.816Z,10.70
2023-01-03T23:36:49.193Z,10.74
2023-01-03T23:38:51.633Z,10.70
2023-01-03T23:40:53.984Z,10.71
2023-01-03T23:42:56.023Z,10.66
2023-01-03T23:44:58.405Z,10.69
2023-01-03T23:47:00.481Z,10.62
2023-01-03T23:49:04.965Z,10.66
2023-01-03T23:51:10.807Z,10.68
2023-01-03T23:53:12.818Z,10.70
2023-01-03T23:55:15.242Z,10.61
2023-01-03T23:57:17.674Z,10.59
2023-01-03T23:59:19.698Z,10.63
